sensor_id;sensor_type;location;lat;lon;timestamp;temperature;humidity
21590;DHT22;10957;50.968;6.828;2022-10-30T00:00:00;14.10;99.90
21590;DHT22;10957;50.968;6.828;2022-10-30T00:05:00;14.10;99.90
21590;DHT22;10957;50.968;6.828;2022-10-30T00:10:01;14.50;99.90
21590;DHT22;10957;50.968;6.828;2022-10-30T00:15:03;14.90;99.90
21590;DHT22;10957;50.968;6.828;2022-10-30T00:20:04;15.10;99.90
21590;DHT22;10957;50.968;6.828;2022-10-30T00:25:06;14.80;99.90
21590;DHT22;10957;50.968;6.828;2022-10-30T00:30:07;15.00;99.90
21590;DHT22;10957;50.968;6.828;2022-10-30T00:35:10;15.10;99.90
21590;DHT22;10957;50.968;6.828;2022-10-30T00:40:14;14.80;99.90
21590;DHT22;10957;50.968;6.828;2022-10-30T00:45:17;14.90;99.90
21590;DHT22;10957;50.968;6.828;2022-10-30T00:50:25;14.90;99.90
21590;DHT22;10957;50.968;6.828;2022-10-30T00:55:31;14.80;99.90
21590;DHT22;10957;50.968;6.828;2022-10-30T01:00:32;14.40;99.90
21590;DHT22;10957;50.968;6.828;2022-10-30T01:05:35;14.50;99.90
21590;DHT22;10957;50.968;6.828;2022-10-30T01:10:37;14.20;99.90
21590;DHT22;10957;50.968;6.828;2022-10-30T01:16:42;14.50;99.90
21590;DHT22;10957;50.968;6.828;2022-10-30T01:26:42;14.90;99.90
21590;DHT22;10957;50.968;6.828;2022-10-30T01:37:13;14.90;99.90
21590;DHT22;10957;50.968;6.828;2022-10-30T01:42:41;14.40;99.90
21590;DHT22;10957;50.968;6.828;2022-10-30T01:48:01;14.10;99.90
21590;DHT22;10957;50.968;6.828;2022-10-30T02:04:07;14.20;99.90
21590;DHT22;10957;50.968;6.828;2022-10-30T02:09:08;14.20;99.90
21590;DHT22;10957;50.968;6.828;2022-10-30T02:14:13;13.80;99.90
21590;DHT22;10957;50.968;6.828;2022-10-30T02:19:16;14.10;99.90
21590;DHT22;10957;50.968;6.828;2022-10-30T02:24:17;14.10;99.90
21590;DHT22;10957;50.968;6.828;2022-10-30T02:29:17;13.70;99.90
21590;DHT22;10957;50.968;6.828;2022-10-30T02:34:20;14.10;99.90
21590;DHT22;10957;50.968;6.828;2022-10-30T02:39:21;13.80;99.90
21590;DHT22;10957;50.968;6.828;2022-10-30T02:44:21;13.90;99.90
21590;DHT22;10957;50.968;6.828;2022-10-30T02:49:22;13.80;99.90
21590;DHT22;10957;50.968;6.828;2022-10-30T02:54:23;13.80;99.90
21590;DHT22;10957;50.968;6.828;2022-10-30T02:59:24;13.50;99.90
21590;DHT22;10957;50.968;6.828;2022-10-30T03:04:25;13.30;99.90
21590;DHT22;10957;50.968;6.828;2022-10-30T03:09:27;13.60;99.90
21590;DHT22;10957;50.968;6.828;2022-10-30T03:14:27;13.00;99.90
21590;DHT22;10957;50.968;6.828;2022-10-30T03:19:28;13.00;99.90
21590;DHT22;10957;50.968;6.828;2022-10-30T03:24:29;13.40;99.90
21590;DHT22;10957;50.968;6.828;2022-10-30T03:29:29;13.10;99.90
21590;DHT22;10957;50.968;6.828;2022-10-30T03:34:30;13.40;99.90
21590;DHT22;10957;50.968;6.828;2022-10-30T03:39:33;13.20;99.90
21590;DHT22;10957;50.968;6.828;2022-10-30T03:44:33;12.80;99.90
21590;DHT22;10957;50.968;6.828;2022-10-30T03:49:35;13.00;99.90
21590;DHT22;10957;50.968;6.828;2022-10-30T03:54:42;12.90;99.90
21590;DHT22;10957;50.968;6.828;2022-10-30T03:59:44;12.80;99.90
21590;DHT22;10957;50.968;6.828;2022-10-30T04:05:04;12.60;99.90
21590;DHT22;10957;50.968;6.828;2022-10-30T04:10:06;12.80;99.90
21590;DHT22;10957;50.968;6.828;2022-10-30T04:15:07;12.60;99.90
21590;DHT22;10957;50.968;6.828;2022-10-30T04:20:09;12.70;99.90
21590;DHT22;10957;50.968;6.828;2022-10-30T04:25:10;12.70;99.90
21590;DHT22;10957;50.968;6.828;2022-10-30T04:30:11;12.70;99.90
21590;DHT22;10957;50.968;6.828;2022-10-30T04:35:13;12.40;99.90
21590;DHT22;10957;50.968;6.828;2022-10-30T04:40:15;12.80;99.90
21590;DHT22;10957;50.968;6.828;2022-10-30T04:45:25;12.80;99.90
21590;DHT22;10957;50.968;6.828;2022-10-30T04:50:26;12.10;99.90
21590;DHT22;10957;50.968;6.828;2022-10-30T04:55:28;12.20;99.90
21590;DHT22;10957;50.968;6.828;2022-10-30T05:00:30;12.40;99.90
21590;DHT22;10957;50.968;6.828;2022-10-30T05:05:38;12.80;99.90
21590;DHT22;10957;50.968;6.828;2022-10-30T05:10:39;12.30;99.90
21590;DHT22;10957;50.968;6.828;2022-10-30T05:15:41;12.60;99.90
21590;DHT22;10957;50.968;6.828;2022-10-30T05:20:42;12.60;99.90
21590;DHT22;10957;50.968;6.828;2022-10-30T05:25:45;12.70;99.90
21590;DHT22;10957;50.968;6.828;2022-10-30T05:30:52;12.20;99.90
21590;DHT22;10957;50.968;6.828;2022-10-30T05:36:10;12.50;99.90
21590;DHT22;10957;50.968;6.828;2022-10-30T05:41:11;12.20;99.90
21590;DHT22;10957;50.968;6.828;2022-10-30T05:46:12;12.20;99.90
21590;DHT22;10957;50.968;6.828;2022-10-30T05:51:13;12.50;99.90
21590;DHT22;10957;50.968;6.828;2022-10-30T05:56:19;12.40;99.90
21590;DHT22;10957;50.968;6.828;2022-10-30T06:01:20;12.30;99.90
21590;DHT22;10957;50.968;6.828;2022-10-30T06:06:25;12.40;99.90
21590;DHT22;10957;50.968;6.828;2022-10-30T06:11:26;12.40;99.90
21590;DHT22;10957;50.968;6.828;2022-10-30T06:16:29;12.40;99.90
21590;DHT22;10957;50.968;6.828;2022-10-30T06:21:59;11.90;99.90
21590;DHT22;10957;50.968;6.828;2022-10-30T06:27:09;12.40;99.90
21590;DHT22;10957;50.968;6.828;2022-10-30T06:32:10;12.40;99.90
21590;DHT22;10957;50.968;6.828;2022-10-30T06:37:11;12.20;99.90
21590;DHT22;10957;50.968;6.828;2022-10-30T06:42:12;12.30;99.90
21590;DHT22;10957;50.968;6.828;2022-10-30T06:47:34;12.00;99.90
21590;DHT22;10957;50.968;6.828;2022-10-30T06:52:35;12.30;99.90
21590;DHT22;10957;50.968;6.828;2022-10-30T06:57:37;12.40;99.90
21590;DHT22;10957;50.968;6.828;2022-10-30T07:02:57;12.30;99.90
21590;DHT22;10957;50.968;6.828;2022-10-30T07:07:58;12.50;99.90
21590;DHT22;10957;50.968;6.828;2022-10-30T07:12:59;12.20;99.90
21590;DHT22;10957;50.968;6.828;2022-10-30T07:18:25;12.20;99.90
21590;DHT22;10957;50.968;6.828;2022-10-30T07:23:30;12.90;99.90
21590;DHT22;10957;50.968;6.828;2022-10-30T07:28:43;12.50;99.90
21590;DHT22;10957;50.968;6.828;2022-10-30T07:34:19;12.90;99.90
21590;DHT22;10957;50.968;6.828;2022-10-30T07:39:42;13.30;99.90
21590;DHT22;10957;50.968;6.828;2022-10-30T07:44:53;13.40;99.90
21590;DHT22;10957;50.968;6.828;2022-10-30T07:50:08;13.80;99.90
21590;DHT22;10957;50.968;6.828;2022-10-30T07:55:09;13.70;99.90
21590;DHT22;10957;50.968;6.828;2022-10-30T08:00:22;13.30;99.90
21590;DHT22;10957;50.968;6.828;2022-10-30T08:05:33;13.70;99.90
21590;DHT22;10957;50.968;6.828;2022-10-30T08:10:43;14.30;99.90
21590;DHT22;10957;50.968;6.828;2022-10-30T08:15:44;14.20;99.90
21590;DHT22;10957;50.968;6.828;2022-10-30T08:20:48;14.40;99.90
21590;DHT22;10957;50.968;6.828;2022-10-30T08:25:49;14.40;99.90
21590;DHT22;10957;50.968;6.828;2022-10-30T08:30:51;14.80;99.90
21590;DHT22;10957;50.968;6.828;2022-10-30T08:36:01;14.30;99.90
21590;DHT22;10957;50.968;6.828;2022-10-30T08:41:02;14.90;99.90
21590;DHT22;10957;50.968;6.828;2022-10-30T08:46:05;14.90;99.90
21590;DHT22;10957;50.968;6.828;2022-10-30T08:51:06;15.00;99.90
21590;DHT22;10957;50.968;6.828;2022-10-30T08:56:11;15.30;99.90
21590;DHT22;10957;50.968;6.828;2022-10-30T09:01:21;15.40;99.90
21590;DHT22;10957;50.968;6.828;2022-10-30T09:06:40;15.50;99.90
21590;DHT22;10957;50.968;6.828;2022-10-30T09:12:13;15.70;99.90
21590;DHT22;10957;50.968;6.828;2022-10-30T09:17:18;16.00;99.90
21590;DHT22;10957;50.968;6.828;2022-10-30T09:22:20;16.20;99.90
21590;DHT22;10957;50.968;6.828;2022-10-30T09:27:21;16.30;99.90
21590;DHT22;10957;50.968;6.828;2022-10-30T09:32:23;16.40;99.90
21590;DHT22;10957;50.968;6.828;2022-10-30T09:37:37;16.60;99.90
21590;DHT22;10957;50.968;6.828;2022-10-30T09:42:43;16.80;99.90
21590;DHT22;10957;50.968;6.828;2022-10-30T09:53:54;17.00;99.90
21590;DHT22;10957;50.968;6.828;2022-10-30T10:04:48;17.20;99.90
21590;DHT22;10957;50.968;6.828;2022-10-30T10:10:42;17.40;99.90
21590;DHT22;10957;50.968;6.828;2022-10-30T10:15:54;17.40;99.90
21590;DHT22;10957;50.968;6.828;2022-10-30T10:21:00;17.60;99.90
21590;DHT22;10957;50.968;6.828;2022-10-30T10:26:14;17.60;99.70
21590;DHT22;10957;50.968;6.828;2022-10-30T10:31:42;17.70;96.40
21590;DHT22;10957;50.968;6.828;2022-10-30T10:42:42;18.10;95.50
21590;DHT22;10957;50.968;6.828;2022-10-30T10:48:21;18.30;92.90
21590;DHT22;10957;50.968;6.828;2022-10-30T10:58:45;18.50;69.90
21590;DHT22;10957;50.968;6.828;2022-10-30T11:03:49;18.60;69.90
21590;DHT22;10957;50.968;6.828;2022-10-30T11:09:15;18.90;70.30
21590;DHT22;10957;50.968;6.828;2022-10-30T11:14:26;18.90;60.10
21590;DHT22;10957;50.968;6.828;2022-10-30T11:19:29;18.90;67.30
21590;DHT22;10957;50.968;6.828;2022-10-30T11:24:32;19.00;64.30
21590;DHT22;10957;50.968;6.828;2022-10-30T11:29:33;19.20;56.40
21590;DHT22;10957;50.968;6.828;2022-10-30T11:34:35;19.40;53.30
21590;DHT22;10957;50.968;6.828;2022-10-30T11:39:37;19.60;48.50
21590;DHT22;10957;50.968;6.828;2022-10-30T11:44:48;19.90;42.90
21590;DHT22;10957;50.968;6.828;2022-10-30T11:49:56;20.00;38.20
21590;DHT22;10957;50.968;6.828;2022-10-30T11:55:17;20.10;36.10
21590;DHT22;10957;50.968;6.828;2022-10-30T12:00:24;20.10;33.70
21590;DHT22;10957;50.968;6.828;2022-10-30T12:05:35;20.10;31.70
21590;DHT22;10957;50.968;6.828;2022-10-30T12:10:44;20.10;30.10
21590;DHT22;10957;50.968;6.828;2022-10-30T12:15:48;20.20;27.50
21590;DHT22;10957;50.968;6.828;2022-10-30T12:20:55;20.30;27.30
21590;DHT22;10957;50.968;6.828;2022-10-30T12:26:00;20.40;24.60
21590;DHT22;10957;50.968;6.828;2022-10-30T12:31:09;20.50;25.60
21590;DHT22;10957;50.968;6.828;2022-10-30T12:36:33;20.60;26.10
21590;DHT22;10957;50.968;6.828;2022-10-30T12:41:41;20.50;26.90
21590;DHT22;10957;50.968;6.828;2022-10-30T12:52:13;20.60;26.60
21590;DHT22;10957;50.968;6.828;2022-10-30T12:57:27;20.70;23.20
21590;DHT22;10957;50.968;6.828;2022-10-30T13:13:38;20.90;20.50
21590;DHT22;10957;50.968;6.828;2022-10-30T13:18:40;21.00;16.10
21590;DHT22;10957;50.968;6.828;2022-10-30T13:24:10;21.10;18.40
21590;DHT22;10957;50.968;6.828;2022-10-30T13:29:16;21.00;16.10
21590;DHT22;10957;50.968;6.828;2022-10-30T13:45:56;21.00;16.10
21590;DHT22;10957;50.968;6.828;2022-10-30T13:56:20;20.90;21.00
21590;DHT22;10957;50.968;6.828;2022-10-30T14:01:32;20.80;20.90
21590;DHT22;10957;50.968;6.828;2022-10-30T14:06:38;20.80;24.70
21590;DHT22;10957;50.968;6.828;2022-10-30T14:11:40;20.70;21.60
21590;DHT22;10957;50.968;6.828;2022-10-30T14:16:43;20.80;20.90
21590;DHT22;10957;50.968;6.828;2022-10-30T14:21:56;20.70;20.90
21590;DHT22;10957;50.968;6.828;2022-10-30T14:37:15;20.40;19.90
21590;DHT22;10957;50.968;6.828;2022-10-30T14:42:31;20.40;21.10
21590;DHT22;10957;50.968;6.828;2022-10-30T14:53:16;20.10;23.30
21590;DHT22;10957;50.968;6.828;2022-10-30T14:58:25;19.90;25.90
21590;DHT22;10957;50.968;6.828;2022-10-30T15:09:21;19.70;28.70
21590;DHT22;10957;50.968;6.828;2022-10-30T15:14:23;19.50;32.00
21590;DHT22;10957;50.968;6.828;2022-10-30T15:19:27;19.40;36.70
21590;DHT22;10957;50.968;6.828;2022-10-30T15:24:29;19.30;48.00
21590;DHT22;10957;50.968;6.828;2022-10-30T15:29:33;19.10;48.20
21590;DHT22;10957;50.968;6.828;2022-10-30T15:34:34;19.10;48.80
21590;DHT22;10957;50.968;6.828;2022-10-30T15:39:35;18.90;50.90
21590;DHT22;10957;50.968;6.828;2022-10-30T15:44:39;18.80;59.10
21590;DHT22;10957;50.968;6.828;2022-10-30T15:49:47;18.60;60.10
21590;DHT22;10957;50.968;6.828;2022-10-30T15:55:15;18.40;42.70
21590;DHT22;10957;50.968;6.828;2022-10-30T16:00:28;18.30;28.40
21590;DHT22;10957;50.968;6.828;2022-10-30T16:05:30;18.20;24.10
21590;DHT22;10957;50.968;6.828;2022-10-30T16:10:32;17.90;28.60
21590;DHT22;10957;50.968;6.828;2022-10-30T16:15:37;17.70;27.10
21590;DHT22;10957;50.968;6.828;2022-10-30T16:20:40;17.50;26.30
21590;DHT22;10957;50.968;6.828;2022-10-30T16:25:42;17.30;26.70
21590;DHT22;10957;50.968;6.828;2022-10-30T16:30:43;17.10;28.10
21590;DHT22;10957;50.968;6.828;2022-10-30T16:35:45;17.00;30.40
21590;DHT22;10957;50.968;6.828;2022-10-30T16:40:48;16.90;35.10
21590;DHT22;10957;50.968;6.828;2022-10-30T16:45:49;16.70;36.40
21590;DHT22;10957;50.968;6.828;2022-10-30T16:50:49;16.60;39.20
21590;DHT22;10957;50.968;6.828;2022-10-30T16:55:51;16.50;44.40
21590;DHT22;10957;50.968;6.828;2022-10-30T17:01:01;16.20;56.20
21590;DHT22;10957;50.968;6.828;2022-10-30T17:06:06;16.10;58.30
21590;DHT22;10957;50.968;6.828;2022-10-30T17:11:16;16.00;60.80
21590;DHT22;10957;50.968;6.828;2022-10-30T17:16:22;15.90;62.00
21590;DHT22;10957;50.968;6.828;2022-10-30T17:21:35;15.80;68.70
21590;DHT22;10957;50.968;6.828;2022-10-30T17:26:37;15.90;67.50
21590;DHT22;10957;50.968;6.828;2022-10-30T17:31:42;15.80;70.60
21590;DHT22;10957;50.968;6.828;2022-10-30T17:36:44;15.90;64.40
21590;DHT22;10957;50.968;6.828;2022-10-30T17:41:45;16.00;61.40
21590;DHT22;10957;50.968;6.828;2022-10-30T17:46:46;15.90;64.50
21590;DHT22;10957;50.968;6.828;2022-10-30T17:51:46;16.00;63.50
21590;DHT22;10957;50.968;6.828;2022-10-30T17:56:47;15.90;66.60
21590;DHT22;10957;50.968;6.828;2022-10-30T18:01:48;15.70;72.80
21590;DHT22;10957;50.968;6.828;2022-10-30T18:06:49;15.60;76.00
21590;DHT22;10957;50.968;6.828;2022-10-30T18:11:50;15.50;83.80
21590;DHT22;10957;50.968;6.828;2022-10-30T18:16:51;15.30;93.30
21590;DHT22;10957;50.968;6.828;2022-10-30T18:21:52;15.30;98.10
21590;DHT22;10957;50.968;6.828;2022-10-30T18:26:54;15.20;97.90
21590;DHT22;10957;50.968;6.828;2022-10-30T18:31:54;15.40;98.20
21590;DHT22;10957;50.968;6.828;2022-10-30T18:36:55;15.20;99.20
21590;DHT22;10957;50.968;6.828;2022-10-30T18:41:56;15.20;98.40
21590;DHT22;10957;50.968;6.828;2022-10-30T18:46:58;15.00;97.80
21590;DHT22;10957;50.968;6.828;2022-10-30T18:51:59;15.40;95.80
21590;DHT22;10957;50.968;6.828;2022-10-30T18:57:01;15.40;95.50
21590;DHT22;10957;50.968;6.828;2022-10-30T19:02:01;15.30;98.00
21590;DHT22;10957;50.968;6.828;2022-10-30T19:07:03;15.20;99.90
21590;DHT22;10957;50.968;6.828;2022-10-30T19:12:05;15.00;99.90
21590;DHT22;10957;50.968;6.828;2022-10-30T19:17:06;14.90;99.90
21590;DHT22;10957;50.968;6.828;2022-10-30T19:22:09;14.40;99.90
21590;DHT22;10957;50.968;6.828;2022-10-30T19:27:11;14.80;99.90
21590;DHT22;10957;50.968;6.828;2022-10-30T19:32:12;14.70;99.90
21590;DHT22;10957;50.968;6.828;2022-10-30T19:37:13;14.70;99.90
21590;DHT22;10957;50.968;6.828;2022-10-30T19:42:13;14.20;99.90
21590;DHT22;10957;50.968;6.828;2022-10-30T19:47:14;14.20;99.90
21590;DHT22;10957;50.968;6.828;2022-10-30T19:52:20;14.40;99.90
21590;DHT22;10957;50.968;6.828;2022-10-30T19:57:21;14.40;99.90
21590;DHT22;10957;50.968;6.828;2022-10-30T20:02:22;14.00;99.90
21590;DHT22;10957;50.968;6.828;2022-10-30T20:07:22;14.30;99.90
21590;DHT22;10957;50.968;6.828;2022-10-30T20:12:23;13.80;99.90
21590;DHT22;10957;50.968;6.828;2022-10-30T20:17:24;13.70;99.90
21590;DHT22;10957;50.968;6.828;2022-10-30T20:22:24;14.30;99.90
21590;DHT22;10957;50.968;6.828;2022-10-30T20:27:25;13.80;99.90
21590;DHT22;10957;50.968;6.828;2022-10-30T20:32:27;13.70;99.90
21590;DHT22;10957;50.968;6.828;2022-10-30T20:37:27;13.50;99.90
21590;DHT22;10957;50.968;6.828;2022-10-30T20:42:28;14.00;99.90
21590;DHT22;10957;50.968;6.828;2022-10-30T20:47:29;13.30;99.90
21590;DHT22;10957;50.968;6.828;2022-10-30T20:52:30;13.60;99.90
21590;DHT22;10957;50.968;6.828;2022-10-30T20:57:31;13.30;99.90
21590;DHT22;10957;50.968;6.828;2022-10-30T21:02:32;13.50;99.90
21590;DHT22;10957;50.968;6.828;2022-10-30T21:07:32;13.40;99.90
21590;DHT22;10957;50.968;6.828;2022-10-30T21:12:33;13.30;99.90
21590;DHT22;10957;50.968;6.828;2022-10-30T21:17:34;13.40;99.90
21590;DHT22;10957;50.968;6.828;2022-10-30T21:22:35;13.20;99.90
21590;DHT22;10957;50.968;6.828;2022-10-30T21:27:36;12.80;99.90
21590;DHT22;10957;50.968;6.828;2022-10-30T21:32:37;13.20;99.90
21590;DHT22;10957;50.968;6.828;2022-10-30T21:37:38;12.70;99.90
21590;DHT22;10957;50.968;6.828;2022-10-30T21:42:39;13.00;99.90
21590;DHT22;10957;50.968;6.828;2022-10-30T21:47:39;13.00;99.90
21590;DHT22;10957;50.968;6.828;2022-10-30T21:52:40;12.60;99.90
21590;DHT22;10957;50.968;6.828;2022-10-30T21:57:41;12.90;99.90
21590;DHT22;10957;50.968;6.828;2022-10-30T22:02:41;13.00;99.90
21590;DHT22;10957;50.968;6.828;2022-10-30T22:07:42;12.50;99.90
21590;DHT22;10957;50.968;6.828;2022-10-30T22:12:43;12.40;99.90
21590;DHT22;10957;50.968;6.828;2022-10-30T22:17:43;12.80;99.90
21590;DHT22;10957;50.968;6.828;2022-10-30T22:22:44;12.70;99.90
21590;DHT22;10957;50.968;6.828;2022-10-30T22:27:46;12.60;99.90
21590;DHT22;10957;50.968;6.828;2022-10-30T22:32:46;13.10;99.90
21590;DHT22;10957;50.968;6.828;2022-10-30T22:37:47;12.90;99.90
21590;DHT22;10957;50.968;6.828;2022-10-30T22:42:48;12.30;99.90
21590;DHT22;10957;50.968;6.828;2022-10-30T22:47:49;12.80;99.90
21590;DHT22;10957;50.968;6.828;2022-10-30T22:52:50;13.00;99.90
21590;DHT22;10957;50.968;6.828;2022-10-30T22:57:52;12.60;99.90
21590;DHT22;10957;50.968;6.828;2022-10-30T23:02:53;12.60;99.90
21590;DHT22;10957;50.968;6.828;2022-10-30T23:07:54;12.70;99.90
21590;DHT22;10957;50.968;6.828;2022-10-30T23:12:55;12.20;99.90
21590;DHT22;10957;50.968;6.828;2022-10-30T23:17:55;12.10;99.90
21590;DHT22;10957;50.968;6.828;2022-10-30T23:22:56;12.80;99.90
21590;DHT22;10957;50.968;6.828;2022-10-30T23:27:57;12.30;99.90
21590;DHT22;10957;50.968;6.828;2022-10-30T23:32:58;12.30;99.90
21590;DHT22;10957;50.968;6.828;2022-10-30T23:37:58;12.60;99.90
21590;DHT22;10957;50.968;6.828;2022-10-30T23:42:59;12.50;99.90
21590;DHT22;10957;50.968;6.828;2022-10-30T23:48:00;12.70;99.90
21590;DHT22;10957;50.968;6.828;2022-10-30T23:53:01;12.60;99.90
21590;DHT22;10957;50.968;6.828;2022-10-30T23:58:01;12.60;99.90
